sensor_id;sensor_type;location;lat;lon;timestamp;P1;durP1;ratioP1;P2;durP2;ratioP2
51814;SDS011;37874;53.158;6.766;2023-07-13T00:01:15;2.78;;;1.10;;
51814;SDS011;37874;53.158;6.766;2023-07-13T00:03:42;2.83;;;1.10;;
51814;SDS011;37874;53.158;6.766;2023-07-13T00:06:08;2.70;;;0.82;;
51814;SDS011;37874;53.158;6.766;2023-07-13T00:08:34;2.55;;;0.90;;
51814;SDS011;37874;53.158;6.766;2023-07-13T00:11:01;2.75;;;1.05;;
51814;SDS011;37874;53.158;6.766;2023-07-13T00:13:27;3.22;;;1.10;;
51814;SDS011;37874;53.158;6.766;2023-07-13T00:15:54;2.60;;;0.95;;
51814;SDS011;37874;53.158;6.766;2023-07-13T00:18:22;3.88;;;1.10;;
51814;SDS011;37874;53.158;6.766;2023-07-13T00:20:48;3.83;;;1.13;;
51814;SDS011;37874;53.158;6.766;2023-07-13T00:23:14;7.57;;;1.00;;
51814;SDS011;37874;53.158;6.766;2023-07-13T00:25:39;3.60;;;0.93;;
51814;SDS011;37874;53.158;6.766;2023-07-13T00:28:05;2.85;;;0.77;;
51814;SDS011;37874;53.158;6.766;2023-07-13T00:30:31;2.25;;;0.95;;
51814;SDS011;37874;53.158;6.766;2023-07-13T00:32:57;2.95;;;0.90;;
51814;SDS011;37874;53.158;6.766;2023-07-13T00:35:23;3.72;;;1.10;;
51814;SDS011;37874;53.158;6.766;2023-07-13T00:37:48;2.17;;;0.77;;
51814;SDS011;37874;53.158;6.766;2023-07-13T00:40:15;3.97;;;0.80;;
51814;SDS011;37874;53.158;6.766;2023-07-13T00:42:41;3.10;;;0.70;;
51814;SDS011;37874;53.158;6.766;2023-07-13T00:47:39;3.17;;;0.90;;
51814;SDS011;37874;53.158;6.766;2023-07-13T00:50:06;2.70;;;0.80;;
51814;SDS011;37874;53.158;6.766;2023-07-13T00:52:35;2.63;;;0.80;;
51814;SDS011;37874;53.158;6.766;2023-07-13T00:55:08;2.05;;;0.68;;
51814;SDS011;37874;53.158;6.766;2023-07-13T00:57:35;1.90;;;0.80;;
51814;SDS011;37874;53.158;6.766;2023-07-13T01:00:02;2.45;;;0.93;;
51814;SDS011;37874;53.158;6.766;2023-07-13T01:02:35;2.47;;;0.73;;
51814;SDS011;37874;53.158;6.766;2023-07-13T01:05:09;3.00;;;1.10;;
51814;SDS011;37874;53.158;6.766;2023-07-13T01:07:36;3.33;;;0.90;;
51814;SDS011;37874;53.158;6.766;2023-07-13T01:10:02;1.70;;;0.68;;
51814;SDS011;37874;53.158;6.766;2023-07-13T01:12:29;2.60;;;0.90;;
51814;SDS011;37874;53.158;6.766;2023-07-13T01:14:57;2.63;;;0.88;;
51814;SDS011;37874;53.158;6.766;2023-07-13T01:17:25;2.92;;;0.90;;
51814;SDS011;37874;53.158;6.766;2023-07-13T01:19:52;2.00;;;0.65;;
51814;SDS011;37874;53.158;6.766;2023-07-13T01:22:18;1.95;;;0.73;;
51814;SDS011;37874;53.158;6.766;2023-07-13T01:24:47;2.33;;;0.88;;
51814;SDS011;37874;53.158;6.766;2023-07-13T01:27:15;4.00;;;1.00;;
51814;SDS011;37874;53.158;6.766;2023-07-13T01:29:45;2.70;;;0.75;;
51814;SDS011;37874;53.158;6.766;2023-07-13T01:32:14;1.92;;;0.70;;
51814;SDS011;37874;53.158;6.766;2023-07-13T01:34:42;3.78;;;0.90;;
51814;SDS011;37874;53.158;6.766;2023-07-13T01:37:09;2.17;;;0.80;;
51814;SDS011;37874;53.158;6.766;2023-07-13T01:39:35;3.22;;;1.17;;
51814;SDS011;37874;53.158;6.766;2023-07-13T01:42:02;2.35;;;0.77;;
51814;SDS011;37874;53.158;6.766;2023-07-13T01:44:28;2.42;;;0.75;;
51814;SDS011;37874;53.158;6.766;2023-07-13T01:46:54;3.58;;;0.85;;
51814;SDS011;37874;53.158;6.766;2023-07-13T01:49:20;2.38;;;0.70;;
51814;SDS011;37874;53.158;6.766;2023-07-13T01:51:46;2.13;;;0.70;;
51814;SDS011;37874;53.158;6.766;2023-07-13T01:54:11;2.58;;;0.90;;
51814;SDS011;37874;53.158;6.766;2023-07-13T01:56:37;3.13;;;0.95;;
51814;SDS011;37874;53.158;6.766;2023-07-13T01:59:03;2.50;;;0.80;;
51814;SDS011;37874;53.158;6.766;2023-07-13T02:01:30;2.75;;;0.80;;
51814;SDS011;37874;53.158;6.766;2023-07-13T02:03:56;3.90;;;0.93;;
51814;SDS011;37874;53.158;6.766;2023-07-13T02:06:21;3.53;;;0.98;;
51814;SDS011;37874;53.158;6.766;2023-07-13T02:08:47;2.75;;;0.82;;
51814;SDS011;37874;53.158;6.766;2023-07-13T02:11:13;2.67;;;0.80;;
51814;SDS011;37874;53.158;6.766;2023-07-13T02:13:39;2.42;;;0.70;;
51814;SDS011;37874;53.158;6.766;2023-07-13T02:16:04;2.30;;;0.60;;
51814;SDS011;37874;53.158;6.766;2023-07-13T02:18:31;2.60;;;0.85;;
51814;SDS011;37874;53.158;6.766;2023-07-13T02:20:57;3.15;;;0.90;;
51814;SDS011;37874;53.158;6.766;2023-07-13T02:23:22;4.63;;;0.88;;
51814;SDS011;37874;53.158;6.766;2023-07-13T02:25:48;2.63;;;0.70;;
51814;SDS011;37874;53.158;6.766;2023-07-13T02:28:14;3.30;;;0.80;;
51814;SDS011;37874;53.158;6.766;2023-07-13T02:30:40;2.10;;;0.80;;
51814;SDS011;37874;53.158;6.766;2023-07-13T02:33:05;3.20;;;1.00;;
51814;SDS011;37874;53.158;6.766;2023-07-13T02:35:31;2.08;;;0.80;;
51814;SDS011;37874;53.158;6.766;2023-07-13T02:37:57;2.08;;;0.70;;
51814;SDS011;37874;53.158;6.766;2023-07-13T02:40:22;3.13;;;0.93;;
51814;SDS011;37874;53.158;6.766;2023-07-13T02:42:48;2.90;;;0.80;;
51814;SDS011;37874;53.158;6.766;2023-07-13T02:45:14;2.88;;;1.02;;
51814;SDS011;37874;53.158;6.766;2023-07-13T02:47:40;3.05;;;0.70;;
51814;SDS011;37874;53.158;6.766;2023-07-13T02:50:07;3.10;;;0.80;;
51814;SDS011;37874;53.158;6.766;2023-07-13T02:52:33;3.35;;;0.93;;
51814;SDS011;37874;53.158;6.766;2023-07-13T02:54:59;3.42;;;1.10;;
51814;SDS011;37874;53.158;6.766;2023-07-13T02:57:24;3.33;;;0.80;;
51814;SDS011;37874;53.158;6.766;2023-07-13T02:59:50;2.05;;;0.77;;
51814;SDS011;37874;53.158;6.766;2023-07-13T03:02:16;2.10;;;0.90;;
51814;SDS011;37874;53.158;6.766;2023-07-13T03:04:41;2.95;;;0.80;;
51814;SDS011;37874;53.158;6.766;2023-07-13T03:07:07;3.47;;;0.90;;
51814;SDS011;37874;53.158;6.766;2023-07-13T03:09:33;2.47;;;0.85;;
51814;SDS011;37874;53.158;6.766;2023-07-13T03:12:00;2.17;;;0.88;;
51814;SDS011;37874;53.158;6.766;2023-07-13T03:14:26;2.58;;;0.80;;
51814;SDS011;37874;53.158;6.766;2023-07-13T03:16:51;2.67;;;0.90;;
51814;SDS011;37874;53.158;6.766;2023-07-13T03:19:17;1.90;;;0.70;;
51814;SDS011;37874;53.158;6.766;2023-07-13T03:21:43;2.25;;;0.68;;
51814;SDS011;37874;53.158;6.766;2023-07-13T03:24:09;3.60;;;0.88;;
51814;SDS011;37874;53.158;6.766;2023-07-13T03:26:35;1.70;;;0.68;;
51814;SDS011;37874;53.158;6.766;2023-07-13T03:29:01;3.00;;;0.68;;
51814;SDS011;37874;53.158;6.766;2023-07-13T03:31:30;2.63;;;0.70;;
51814;SDS011;37874;53.158;6.766;2023-07-13T03:33:58;2.20;;;0.70;;
51814;SDS011;37874;53.158;6.766;2023-07-13T03:36:25;3.30;;;0.88;;
51814;SDS011;37874;53.158;6.766;2023-07-13T03:38:54;3.65;;;0.90;;
51814;SDS011;37874;53.158;6.766;2023-07-13T03:41:23;4.00;;;1.17;;
51814;SDS011;37874;53.158;6.766;2023-07-13T03:43:49;1.80;;;0.70;;
51814;SDS011;37874;53.158;6.766;2023-07-13T03:46:15;1.95;;;0.70;;
51814;SDS011;37874;53.158;6.766;2023-07-13T03:48:42;2.58;;;0.80;;
51814;SDS011;37874;53.158;6.766;2023-07-13T03:51:10;2.72;;;0.80;;
51814;SDS011;37874;53.158;6.766;2023-07-13T03:53:38;2.78;;;0.70;;
51814;SDS011;37874;53.158;6.766;2023-07-13T03:56:06;2.25;;;0.80;;
51814;SDS011;37874;53.158;6.766;2023-07-13T03:58:33;1.95;;;0.80;;
51814;SDS011;37874;53.158;6.766;2023-07-13T04:01:02;1.90;;;0.68;;
51814;SDS011;37874;53.158;6.766;2023-07-13T04:03:30;2.10;;;0.70;;
51814;SDS011;37874;53.158;6.766;2023-07-13T04:06:01;2.35;;;0.70;;
51814;SDS011;37874;53.158;6.766;2023-07-13T04:08:30;2.85;;;0.90;;
51814;SDS011;37874;53.158;6.766;2023-07-13T04:10:58;4.22;;;0.93;;
51814;SDS011;37874;53.158;6.766;2023-07-13T04:13:24;3.28;;;0.70;;
51814;SDS011;37874;53.158;6.766;2023-07-13T04:15:51;3.22;;;0.93;;
51814;SDS011;37874;53.158;6.766;2023-07-13T04:18:17;2.83;;;0.82;;
51814;SDS011;37874;53.158;6.766;2023-07-13T04:20:45;1.60;;;0.65;;
51814;SDS011;37874;53.158;6.766;2023-07-13T04:23:11;2.33;;;0.95;;
51814;SDS011;37874;53.158;6.766;2023-07-13T04:25:37;3.13;;;0.80;;
51814;SDS011;37874;53.158;6.766;2023-07-13T04:28:03;2.13;;;0.75;;
51814;SDS011;37874;53.158;6.766;2023-07-13T04:30:29;2.03;;;0.60;;
51814;SDS011;37874;53.158;6.766;2023-07-13T04:32:55;2.35;;;0.70;;
51814;SDS011;37874;53.158;6.766;2023-07-13T04:35:21;3.60;;;0.98;;
51814;SDS011;37874;53.158;6.766;2023-07-13T04:37:50;2.25;;;0.90;;
51814;SDS011;37874;53.158;6.766;2023-07-13T04:40:16;4.18;;;1.15;;
51814;SDS011;37874;53.158;6.766;2023-07-13T04:42:43;3.20;;;1.05;;
51814;SDS011;37874;53.158;6.766;2023-07-13T04:45:09;2.67;;;0.80;;
51814;SDS011;37874;53.158;6.766;2023-07-13T04:47:36;2.95;;;0.88;;
51814;SDS011;37874;53.158;6.766;2023-07-13T04:50:02;2.42;;;0.80;;
51814;SDS011;37874;53.158;6.766;2023-07-13T04:52:28;2.53;;;0.75;;
51814;SDS011;37874;53.158;6.766;2023-07-13T04:54:53;2.40;;;0.75;;
51814;SDS011;37874;53.158;6.766;2023-07-13T04:57:19;3.55;;;1.02;;
51814;SDS011;37874;53.158;6.766;2023-07-13T04:59:45;2.30;;;0.90;;
51814;SDS011;37874;53.158;6.766;2023-07-13T05:02:11;4.05;;;0.80;;
51814;SDS011;37874;53.158;6.766;2023-07-13T05:04:36;2.40;;;0.82;;
51814;SDS011;37874;53.158;6.766;2023-07-13T05:07:02;3.05;;;0.93;;
51814;SDS011;37874;53.158;6.766;2023-07-13T05:09:28;4.32;;;0.90;;
51814;SDS011;37874;53.158;6.766;2023-07-13T05:11:53;3.17;;;0.85;;
51814;SDS011;37874;53.158;6.766;2023-07-13T05:14:19;2.47;;;0.77;;
51814;SDS011;37874;53.158;6.766;2023-07-13T05:16:45;1.80;;;0.70;;
51814;SDS011;37874;53.158;6.766;2023-07-13T05:19:11;3.80;;;0.82;;
51814;SDS011;37874;53.158;6.766;2023-07-13T05:21:37;2.25;;;0.80;;
51814;SDS011;37874;53.158;6.766;2023-07-13T05:24:03;2.40;;;0.93;;
51814;SDS011;37874;53.158;6.766;2023-07-13T05:26:28;3.05;;;0.88;;
51814;SDS011;37874;53.158;6.766;2023-07-13T05:28:54;2.38;;;0.73;;
51814;SDS011;37874;53.158;6.766;2023-07-13T05:31:20;1.88;;;0.50;;
51814;SDS011;37874;53.158;6.766;2023-07-13T05:33:45;2.47;;;0.80;;
51814;SDS011;37874;53.158;6.766;2023-07-13T05:36:11;2.88;;;0.77;;
51814;SDS011;37874;53.158;6.766;2023-07-13T05:38:37;1.98;;;0.80;;
51814;SDS011;37874;53.158;6.766;2023-07-13T05:41:03;3.83;;;1.00;;
51814;SDS011;37874;53.158;6.766;2023-07-13T05:43:28;2.75;;;0.85;;
51814;SDS011;37874;53.158;6.766;2023-07-13T05:45:56;3.40;;;0.93;;
51814;SDS011;37874;53.158;6.766;2023-07-13T05:48:22;2.42;;;0.80;;
51814;SDS011;37874;53.158;6.766;2023-07-13T05:50:48;2.70;;;0.80;;
51814;SDS011;37874;53.158;6.766;2023-07-13T05:53:14;2.17;;;0.70;;
51814;SDS011;37874;53.158;6.766;2023-07-13T05:55:40;2.80;;;0.88;;
51814;SDS011;37874;53.158;6.766;2023-07-13T05:58:13;2.28;;;0.88;;
51814;SDS011;37874;53.158;6.766;2023-07-13T06:00:39;2.13;;;0.80;;
51814;SDS011;37874;53.158;6.766;2023-07-13T06:03:05;2.15;;;0.73;;
51814;SDS011;37874;53.158;6.766;2023-07-13T06:05:32;2.78;;;1.00;;
51814;SDS011;37874;53.158;6.766;2023-07-13T06:07:59;2.95;;;0.98;;
51814;SDS011;37874;53.158;6.766;2023-07-13T06:10:25;3.40;;;0.90;;
51814;SDS011;37874;53.158;6.766;2023-07-13T06:12:51;2.80;;;0.90;;
51814;SDS011;37874;53.158;6.766;2023-07-13T06:15:16;4.13;;;0.90;;
51814;SDS011;37874;53.158;6.766;2023-07-13T06:17:42;3.03;;;0.82;;
51814;SDS011;37874;53.158;6.766;2023-07-13T06:20:08;3.20;;;0.90;;
51814;SDS011;37874;53.158;6.766;2023-07-13T06:22:35;2.30;;;0.73;;
51814;SDS011;37874;53.158;6.766;2023-07-13T06:25:00;3.13;;;1.10;;
51814;SDS011;37874;53.158;6.766;2023-07-13T06:27:26;2.78;;;0.85;;
51814;SDS011;37874;53.158;6.766;2023-07-13T06:29:51;2.40;;;0.80;;
51814;SDS011;37874;53.158;6.766;2023-07-13T06:32:17;2.55;;;0.70;;
51814;SDS011;37874;53.158;6.766;2023-07-13T06:34:43;2.58;;;0.80;;
51814;SDS011;37874;53.158;6.766;2023-07-13T06:37:09;2.83;;;0.70;;
51814;SDS011;37874;53.158;6.766;2023-07-13T06:39:35;2.25;;;0.60;;
51814;SDS011;37874;53.158;6.766;2023-07-13T06:42:00;5.47;;;0.80;;
51814;SDS011;37874;53.158;6.766;2023-07-13T06:44:26;2.92;;;0.90;;
51814;SDS011;37874;53.158;6.766;2023-07-13T06:46:51;4.05;;;0.93;;
51814;SDS011;37874;53.158;6.766;2023-07-13T06:49:17;3.42;;;0.93;;
51814;SDS011;37874;53.158;6.766;2023-07-13T06:51:43;3.25;;;0.90;;
51814;SDS011;37874;53.158;6.766;2023-07-13T06:54:08;2.88;;;1.05;;
51814;SDS011;37874;53.158;6.766;2023-07-13T06:56:34;4.95;;;1.13;;
51814;SDS011;37874;53.158;6.766;2023-07-13T06:59:00;1.85;;;0.80;;
51814;SDS011;37874;53.158;6.766;2023-07-13T07:01:25;2.25;;;0.90;;
51814;SDS011;37874;53.158;6.766;2023-07-13T07:03:51;3.22;;;0.90;;
51814;SDS011;37874;53.158;6.766;2023-07-13T07:06:21;3.22;;;0.80;;
51814;SDS011;37874;53.158;6.766;2023-07-13T07:08:51;5.95;;;1.40;;
51814;SDS011;37874;53.158;6.766;2023-07-13T07:11:18;2.83;;;0.88;;
51814;SDS011;37874;53.158;6.766;2023-07-13T07:13:47;1.85;;;0.63;;
51814;SDS011;37874;53.158;6.766;2023-07-13T07:16:12;2.83;;;1.05;;
51814;SDS011;37874;53.158;6.766;2023-07-13T07:18:38;2.50;;;0.70;;
51814;SDS011;37874;53.158;6.766;2023-07-13T07:21:04;2.72;;;0.98;;
51814;SDS011;37874;53.158;6.766;2023-07-13T07:23:30;2.08;;;0.80;;
51814;SDS011;37874;53.158;6.766;2023-07-13T07:25:55;2.97;;;0.75;;
51814;SDS011;37874;53.158;6.766;2023-07-13T07:28:21;3.38;;;0.80;;
51814;SDS011;37874;53.158;6.766;2023-07-13T07:30:47;1.52;;;0.50;;
51814;SDS011;37874;53.158;6.766;2023-07-13T07:33:14;2.80;;;0.73;;
51814;SDS011;37874;53.158;6.766;2023-07-13T07:35:42;2.90;;;0.80;;
51814;SDS011;37874;53.158;6.766;2023-07-13T07:38:07;4.78;;;0.90;;
51814;SDS011;37874;53.158;6.766;2023-07-13T07:40:36;2.75;;;0.80;;
51814;SDS011;37874;53.158;6.766;2023-07-13T07:43:02;1.77;;;0.80;;
51814;SDS011;37874;53.158;6.766;2023-07-13T07:45:28;2.60;;;0.70;;
51814;SDS011;37874;53.158;6.766;2023-07-13T07:47:54;3.45;;;0.93;;
51814;SDS011;37874;53.158;6.766;2023-07-13T07:50:24;2.03;;;0.80;;
51814;SDS011;37874;53.158;6.766;2023-07-13T07:52:50;2.00;;;0.70;;
51814;SDS011;37874;53.158;6.766;2023-07-13T07:55:16;2.15;;;0.60;;
51814;SDS011;37874;53.158;6.766;2023-07-13T07:57:42;1.98;;;0.88;;
51814;SDS011;37874;53.158;6.766;2023-07-13T08:00:08;2.75;;;0.70;;
51814;SDS011;37874;53.158;6.766;2023-07-13T08:02:34;2.88;;;0.95;;
51814;SDS011;37874;53.158;6.766;2023-07-13T08:05:00;2.17;;;0.70;;
51814;SDS011;37874;53.158;6.766;2023-07-13T08:07:25;2.50;;;0.90;;
51814;SDS011;37874;53.158;6.766;2023-07-13T08:09:52;1.95;;;0.60;;
51814;SDS011;37874;53.158;6.766;2023-07-13T08:12:18;2.78;;;0.82;;
51814;SDS011;37874;53.158;6.766;2023-07-13T08:14:44;2.65;;;0.85;;
51814;SDS011;37874;53.158;6.766;2023-07-13T08:17:09;2.70;;;0.80;;
51814;SDS011;37874;53.158;6.766;2023-07-13T08:19:35;2.33;;;0.60;;
51814;SDS011;37874;53.158;6.766;2023-07-13T08:22:01;2.42;;;0.70;;
51814;SDS011;37874;53.158;6.766;2023-07-13T08:24:26;2.28;;;0.70;;
51814;SDS011;37874;53.158;6.766;2023-07-13T08:26:52;3.03;;;0.73;;
51814;SDS011;37874;53.158;6.766;2023-07-13T08:29:17;3.65;;;0.82;;
51814;SDS011;37874;53.158;6.766;2023-07-13T08:31:43;2.83;;;0.82;;
51814;SDS011;37874;53.158;6.766;2023-07-13T08:34:10;1.95;;;0.63;;
51814;SDS011;37874;53.158;6.766;2023-07-13T08:36:36;1.75;;;0.63;;
51814;SDS011;37874;53.158;6.766;2023-07-13T08:39:02;2.65;;;0.85;;
51814;SDS011;37874;53.158;6.766;2023-07-13T08:41:28;1.73;;;0.70;;
51814;SDS011;37874;53.158;6.766;2023-07-13T08:43:56;1.83;;;0.70;;
51814;SDS011;37874;53.158;6.766;2023-07-13T08:46:25;2.03;;;0.70;;
51814;SDS011;37874;53.158;6.766;2023-07-13T08:48:57;3.08;;;0.93;;
51814;SDS011;37874;53.158;6.766;2023-07-13T08:51:43;2.17;;;0.60;;
51814;SDS011;37874;53.158;6.766;2023-07-13T08:54:37;1.73;;;0.80;;
51814;SDS011;37874;53.158;6.766;2023-07-13T08:57:14;2.05;;;0.70;;
51814;SDS011;37874;53.158;6.766;2023-07-13T08:59:41;2.50;;;0.77;;
51814;SDS011;37874;53.158;6.766;2023-07-13T09:05:13;3.53;;;0.50;;
51814;SDS011;37874;53.158;6.766;2023-07-13T09:07:55;2.22;;;0.70;;
51814;SDS011;37874;53.158;6.766;2023-07-13T09:10:31;1.40;;;0.60;;
51814;SDS011;37874;53.158;6.766;2023-07-13T09:16:08;2.08;;;0.60;;
51814;SDS011;37874;53.158;6.766;2023-07-13T09:18:37;1.42;;;0.50;;
51814;SDS011;37874;53.158;6.766;2023-07-13T09:21:11;1.63;;;0.65;;
51814;SDS011;37874;53.158;6.766;2023-07-13T09:23:41;3.15;;;1.02;;
51814;SDS011;37874;53.158;6.766;2023-07-13T09:28:44;1.75;;;0.80;;
51814;SDS011;37874;53.158;6.766;2023-07-13T09:33:48;2.70;;;0.80;;
51814;SDS011;37874;53.158;6.766;2023-07-13T09:36:20;1.42;;;0.60;;
51814;SDS011;37874;53.158;6.766;2023-07-13T09:38:49;3.25;;;0.70;;
51814;SDS011;37874;53.158;6.766;2023-07-13T09:41:31;2.40;;;0.55;;
51814;SDS011;37874;53.158;6.766;2023-07-13T09:46:33;1.67;;;0.73;;
51814;SDS011;37874;53.158;6.766;2023-07-13T09:49:00;1.50;;;0.70;;
51814;SDS011;37874;53.158;6.766;2023-07-13T09:51:25;1.25;;;0.50;;
51814;SDS011;37874;53.158;6.766;2023-07-13T09:53:51;2.38;;;0.60;;
51814;SDS011;37874;53.158;6.766;2023-07-13T09:56:23;1.92;;;0.63;;
51814;SDS011;37874;53.158;6.766;2023-07-13T09:58:52;3.13;;;1.02;;
51814;SDS011;37874;53.158;6.766;2023-07-13T10:01:31;2.15;;;0.77;;
51814;SDS011;37874;53.158;6.766;2023-07-13T10:04:00;2.00;;;0.73;;
51814;SDS011;37874;53.158;6.766;2023-07-13T10:06:26;2.38;;;0.70;;
51814;SDS011;37874;53.158;6.766;2023-07-13T10:08:52;1.45;;;0.50;;
51814;SDS011;37874;53.158;6.766;2023-07-13T10:11:26;2.28;;;0.75;;
51814;SDS011;37874;53.158;6.766;2023-07-13T10:13:59;1.83;;;0.70;;
51814;SDS011;37874;53.158;6.766;2023-07-13T10:16:37;1.58;;;0.60;;
51814;SDS011;37874;53.158;6.766;2023-07-13T10:19:06;2.85;;;0.70;;
51814;SDS011;37874;53.158;6.766;2023-07-13T10:21:56;3.42;;;0.70;;
51814;SDS011;37874;53.158;6.766;2023-07-13T10:24:35;2.30;;;0.90;;
51814;SDS011;37874;53.158;6.766;2023-07-13T10:29:43;1.08;;;0.50;;
51814;SDS011;37874;53.158;6.766;2023-07-13T10:32:17;2.58;;;0.60;;
51814;SDS011;37874;53.158;6.766;2023-07-13T10:34:47;1.80;;;0.52;;
51814;SDS011;37874;53.158;6.766;2023-07-13T10:37:17;2.20;;;0.60;;
51814;SDS011;37874;53.158;6.766;2023-07-13T10:39:55;2.00;;;0.70;;
51814;SDS011;37874;53.158;6.766;2023-07-13T10:42:27;2.03;;;0.88;;
51814;SDS011;37874;53.158;6.766;2023-07-13T10:45:00;2.20;;;0.88;;
51814;SDS011;37874;53.158;6.766;2023-07-13T10:47:26;1.88;;;0.63;;
51814;SDS011;37874;53.158;6.766;2023-07-13T10:49:53;2.47;;;0.80;;
51814;SDS011;37874;53.158;6.766;2023-07-13T10:58:02;2.67;;;0.77;;
51814;SDS011;37874;53.158;6.766;2023-07-13T11:00:41;3.13;;;0.93;;
51814;SDS011;37874;53.158;6.766;2023-07-13T11:03:13;1.80;;;0.80;;
51814;SDS011;37874;53.158;6.766;2023-07-13T11:05:40;1.73;;;0.80;;
51814;SDS011;37874;53.158;6.766;2023-07-13T11:08:16;1.90;;;0.70;;
51814;SDS011;37874;53.158;6.766;2023-07-13T11:10:56;2.22;;;0.70;;
51814;SDS011;37874;53.158;6.766;2023-07-13T11:24:30;3.00;;;0.80;;
51814;SDS011;37874;53.158;6.766;2023-07-13T11:31:43;1.95;;;0.55;;
51814;SDS011;37874;53.158;6.766;2023-07-13T11:34:25;2.00;;;0.68;;
51814;SDS011;37874;53.158;6.766;2023-07-13T11:36:55;1.50;;;0.70;;
51814;SDS011;37874;53.158;6.766;2023-07-13T11:41:58;2.27;;;0.70;;
51814;SDS011;37874;53.158;6.766;2023-07-13T11:44:29;2.53;;;0.73;;
51814;SDS011;37874;53.158;6.766;2023-07-13T11:46:56;2.17;;;0.70;;
51814;SDS011;37874;53.158;6.766;2023-07-13T11:49:26;1.80;;;0.70;;
51814;SDS011;37874;53.158;6.766;2023-07-13T11:51:55;2.15;;;0.75;;
51814;SDS011;37874;53.158;6.766;2023-07-13T11:54:32;2.63;;;0.70;;
51814;SDS011;37874;53.158;6.766;2023-07-13T11:59:52;2.25;;;0.70;;
51814;SDS011;37874;53.158;6.766;2023-07-13T12:02:32;2.00;;;0.80;;
51814;SDS011;37874;53.158;6.766;2023-07-13T12:05:02;2.28;;;0.68;;
51814;SDS011;37874;53.158;6.766;2023-07-13T12:07:30;3.38;;;0.82;;
51814;SDS011;37874;53.158;6.766;2023-07-13T12:12:53;2.53;;;0.75;;
51814;SDS011;37874;53.158;6.766;2023-07-13T12:15:21;1.85;;;0.70;;
51814;SDS011;37874;53.158;6.766;2023-07-13T12:17:48;2.40;;;0.85;;
51814;SDS011;37874;53.158;6.766;2023-07-13T12:20:20;2.05;;;0.77;;
51814;SDS011;37874;53.158;6.766;2023-07-13T12:22:49;2.20;;;0.85;;
51814;SDS011;37874;53.158;6.766;2023-07-13T12:25:15;2.40;;;0.98;;
51814;SDS011;37874;53.158;6.766;2023-07-13T12:27:42;2.03;;;0.80;;
51814;SDS011;37874;53.158;6.766;2023-07-13T12:30:32;1.88;;;0.70;;
51814;SDS011;37874;53.158;6.766;2023-07-13T12:33:08;1.95;;;0.70;;
51814;SDS011;37874;53.158;6.766;2023-07-13T12:35:45;3.30;;;0.60;;
51814;SDS011;37874;53.158;6.766;2023-07-13T12:38:14;1.48;;;0.68;;
51814;SDS011;37874;53.158;6.766;2023-07-13T12:40:41;3.35;;;0.80;;
51814;SDS011;37874;53.158;6.766;2023-07-13T12:43:11;2.38;;;0.73;;
51814;SDS011;37874;53.158;6.766;2023-07-13T12:45:38;2.70;;;0.80;;
51814;SDS011;37874;53.158;6.766;2023-07-13T12:48:19;4.13;;;0.73;;
51814;SDS011;37874;53.158;6.766;2023-07-13T12:50:46;1.88;;;0.82;;
51814;SDS011;37874;53.158;6.766;2023-07-13T12:53:16;1.88;;;0.60;;
51814;SDS011;37874;53.158;6.766;2023-07-13T12:55:52;2.13;;;0.73;;
51814;SDS011;37874;53.158;6.766;2023-07-13T13:00:59;2.50;;;0.80;;
51814;SDS011;37874;53.158;6.766;2023-07-13T13:03:32;1.92;;;0.60;;
51814;SDS011;37874;53.158;6.766;2023-07-13T13:06:06;1.88;;;0.82;;
51814;SDS011;37874;53.158;6.766;2023-07-13T13:08:46;3.75;;;0.82;;
51814;SDS011;37874;53.158;6.766;2023-07-13T13:11:17;2.83;;;0.70;;
51814;SDS011;37874;53.158;6.766;2023-07-13T13:13:43;2.30;;;0.70;;
51814;SDS011;37874;53.158;6.766;2023-07-13T13:16:11;1.55;;;0.63;;
51814;SDS011;37874;53.158;6.766;2023-07-13T13:21:45;2.65;;;0.70;;
51814;SDS011;37874;53.158;6.766;2023-07-13T13:24:15;2.80;;;0.68;;
51814;SDS011;37874;53.158;6.766;2023-07-13T13:26:42;2.80;;;0.93;;
51814;SDS011;37874;53.158;6.766;2023-07-13T13:29:13;1.73;;;0.70;;
51814;SDS011;37874;53.158;6.766;2023-07-13T13:31:41;2.28;;;0.80;;
51814;SDS011;37874;53.158;6.766;2023-07-13T13:34:11;1.70;;;0.60;;
51814;SDS011;37874;53.158;6.766;2023-07-13T13:36:39;3.80;;;0.73;;
51814;SDS011;37874;53.158;6.766;2023-07-13T13:39:10;4.85;;;1.00;;
51814;SDS011;37874;53.158;6.766;2023-07-13T13:41:45;4.18;;;0.90;;
51814;SDS011;37874;53.158;6.766;2023-07-13T13:44:12;5.70;;;1.13;;
51814;SDS011;37874;53.158;6.766;2023-07-13T13:46:40;4.55;;;0.90;;
51814;SDS011;37874;53.158;6.766;2023-07-13T13:49:09;6.95;;;0.88;;
51814;SDS011;37874;53.158;6.766;2023-07-13T13:51:42;5.03;;;1.30;;
51814;SDS011;37874;53.158;6.766;2023-07-13T13:54:10;16.15;;;1.70;;
51814;SDS011;37874;53.158;6.766;2023-07-13T13:56:37;9.15;;;1.25;;
51814;SDS011;37874;53.158;6.766;2023-07-13T13:59:03;9.07;;;1.33;;
51814;SDS011;37874;53.158;6.766;2023-07-13T14:01:29;4.93;;;0.93;;
51814;SDS011;37874;53.158;6.766;2023-07-13T14:03:56;7.38;;;1.00;;
51814;SDS011;37874;53.158;6.766;2023-07-13T14:06:22;9.15;;;1.52;;
51814;SDS011;37874;53.158;6.766;2023-07-13T14:08:48;8.00;;;1.10;;
51814;SDS011;37874;53.158;6.766;2023-07-13T14:11:14;7.30;;;1.50;;
51814;SDS011;37874;53.158;6.766;2023-07-13T14:13:42;10.77;;;1.60;;
51814;SDS011;37874;53.158;6.766;2023-07-13T14:16:12;6.88;;;1.20;;
51814;SDS011;37874;53.158;6.766;2023-07-13T14:18:42;9.35;;;1.83;;
51814;SDS011;37874;53.158;6.766;2023-07-13T14:21:13;8.25;;;1.40;;
51814;SDS011;37874;53.158;6.766;2023-07-13T14:23:40;5.00;;;1.10;;
51814;SDS011;37874;53.158;6.766;2023-07-13T14:26:40;3.70;;;1.27;;
51814;SDS011;37874;53.158;6.766;2023-07-13T14:29:01;5.93;;;1.30;;
51814;SDS011;37874;53.158;6.766;2023-07-13T14:31:27;7.93;;;1.40;;
51814;SDS011;37874;53.158;6.766;2023-07-13T14:33:56;8.82;;;1.80;;
51814;SDS011;37874;53.158;6.766;2023-07-13T14:36:27;7.50;;;1.38;;
51814;SDS011;37874;53.158;6.766;2023-07-13T14:38:59;8.30;;;1.30;;
51814;SDS011;37874;53.158;6.766;2023-07-13T14:41:26;7.15;;;1.48;;
51814;SDS011;37874;53.158;6.766;2023-07-13T14:43:52;8.75;;;1.50;;
51814;SDS011;37874;53.158;6.766;2023-07-13T14:49:02;6.38;;;1.73;;
51814;SDS011;37874;53.158;6.766;2023-07-13T14:51:31;8.93;;;1.60;;
51814;SDS011;37874;53.158;6.766;2023-07-13T14:54:00;3.58;;;1.00;;
51814;SDS011;37874;53.158;6.766;2023-07-13T14:56:27;4.57;;;1.33;;
51814;SDS011;37874;53.158;6.766;2023-07-13T14:58:53;5.07;;;1.25;;
51814;SDS011;37874;53.158;6.766;2023-07-13T15:01:19;7.93;;;1.80;;
51814;SDS011;37874;53.158;6.766;2023-07-13T15:03:47;7.55;;;1.30;;
51814;SDS011;37874;53.158;6.766;2023-07-13T15:06:14;4.30;;;1.10;;
51814;SDS011;37874;53.158;6.766;2023-07-13T15:08:40;4.90;;;1.50;;
51814;SDS011;37874;53.158;6.766;2023-07-13T15:11:09;5.03;;;1.30;;
51814;SDS011;37874;53.158;6.766;2023-07-13T15:13:38;3.72;;;1.35;;
51814;SDS011;37874;53.158;6.766;2023-07-13T15:16:15;5.38;;;1.10;;
51814;SDS011;37874;53.158;6.766;2023-07-13T15:18:44;5.85;;;1.33;;
51814;SDS011;37874;53.158;6.766;2023-07-13T15:21:11;4.03;;;1.10;;
51814;SDS011;37874;53.158;6.766;2023-07-13T15:23:39;6.53;;;1.50;;
51814;SDS011;37874;53.158;6.766;2023-07-13T15:26:07;4.22;;;1.30;;
51814;SDS011;37874;53.158;6.766;2023-07-13T15:28:38;5.45;;;1.17;;
51814;SDS011;37874;53.158;6.766;2023-07-13T15:31:05;6.25;;;1.10;;
51814;SDS011;37874;53.158;6.766;2023-07-13T15:33:47;5.22;;;1.27;;
51814;SDS011;37874;53.158;6.766;2023-07-13T15:36:15;3.88;;;1.20;;
51814;SDS011;37874;53.158;6.766;2023-07-13T15:38:42;4.28;;;1.20;;
51814;SDS011;37874;53.158;6.766;2023-07-13T15:41:17;3.95;;;1.17;;
51814;SDS011;37874;53.158;6.766;2023-07-13T15:43:45;4.97;;;1.00;;
51814;SDS011;37874;53.158;6.766;2023-07-13T15:46:12;4.07;;;1.23;;
51814;SDS011;37874;53.158;6.766;2023-07-13T15:48:38;16.85;;;5.82;;
51814;SDS011;37874;53.158;6.766;2023-07-13T15:51:05;24.30;;;7.35;;